Time;durP1;ratioP1;P1;durP2;ratioP2;P2;SDS_P1;SDS_P2;PMS_P1;PMS_P2;Temp;Humidity;BMP_temperature;BMP_pressure;BME280_temperature;BME280_humidity;BME280_pressure;Samples;Min_cycle;Max_cycle;Signal;HPM_P1;HPM_P2
2022/04/23 00:01:12;;;;;;;11.05;10.00;;;15.10;88.90;;;;;;5031474;28;20638;-41
2022/04/23 00:03:42;;;;;;;11.95;10.75;;;15.00;88.60;;;;;;5030343;28;20203;-44
2022/04/23 00:06:11;;;;;;;12.18;10.50;;;15.00;88.90;;;;;;5031468;28;20885;-40
2022/04/23 00:08:38;;;;;;;12.75;11.25;;;15.00;88.90;;;;;;5024779;28;20224;-40
2022/04/23 00:11:06;;;;;;;11.63;10.43;;;15.00;88.90;;;;;;5017346;28;20227;-40
2022/04/23 00:13:38;;;;;;;13.23;11.60;;;15.00;89.50;;;;;;5028023;28;20208;-40
2022/04/23 00:16:10;;;;;;;12.30;10.73;;;14.90;89.30;;;;;;5031820;28;20256;-40
2022/04/23 00:18:38;;;;;;;12.82;11.32;;;14.90;89.30;;;;;;5032558;28;20231;-41
2022/04/23 00:21:05;;;;;;;11.98;10.70;;;14.90;89.50;;;;;;5030521;28;20212;-40
2022/04/23 00:23:35;;;;;;;12.63;10.88;;;14.90;89.20;;;;;;5028532;28;20201;-41
2022/04/23 00:26:02;;;;;;;12.33;10.87;;;14.90;89.20;;;;;;5034619;28;20899;-39
2022/04/23 00:28:30;;;;;;;11.75;10.48;;;14.90;89.20;;;;;;5043068;28;20697;-41
2022/04/23 00:31:00;;;;;;;12.55;10.85;;;14.90;89.20;;;;;;5035518;28;20266;-40
2022/04/23 00:33:30;;;;;;;11.05;9.95;;;14.90;89.20;;;;;;5041401;28;20196;-40
2022/04/23 00:36:00;;;;;;;12.32;10.73;;;14.90;89.10;;;;;;5033317;28;20280;-38
2022/04/23 00:38:27;;;;;;;12.90;11.48;;;14.90;89.60;;;;;;5029847;28;20205;-39
2022/04/23 00:40:57;;;;;;;12.43;11.13;;;14.90;89.60;;;;;;5028902;28;20675;-46
2022/04/23 00:43:33;;;;;;;12.52;11.23;;;14.90;89.60;;;;;;5036393;28;20226;-40
2022/04/23 00:46:03;;;;;;;11.50;9.93;;;14.90;90.00;;;;;;5057316;28;20207;-42
2022/04/23 00:48:31;;;;;;;12.40;11.20;;;14.90;89.50;;;;;;5040179;28;20216;-39
2022/04/23 00:51:00;;;;;;;12.65;10.63;;;14.90;89.90;;;;;;5029909;28;20208;-40
2022/04/23 00:53:31;;;;;;;11.77;10.57;;;14.90;90.00;;;;;;5034679;28;20215;-40
2022/04/23 00:55:58;;;;;;;12.25;10.95;;;14.90;89.80;;;;;;5039994;28;20601;-41
2022/04/23 00:58:27;;;;;;;12.45;11.02;;;14.90;89.80;;;;;;5035332;28;20266;-41
2022/04/23 01:00:57;;;;;;;14.15;11.73;;;14.90;89.80;;;;;;5046099;28;20516;-40
2022/04/23 01:03:26;;;;;;;12.10;10.80;;;14.90;89.90;;;;;;5047904;28;20216;-38
2022/04/23 01:05:55;;;;;;;11.68;10.52;;;14.90;90.00;;;;;;5038256;28;20295;-38
2022/04/23 01:08:25;;;;;;;11.95;10.75;;;14.90;90.00;;;;;;5047002;28;20311;-38
2022/04/23 01:10:56;;;;;;;11.23;10.13;;;14.90;90.10;;;;;;5042569;28;20704;-42
2022/04/23 01:13:25;;;;;;;11.73;10.52;;;14.90;90.10;;;;;;5033337;28;20664;-38
2022/04/23 01:16:07;;;;;;;12.10;10.88;;;14.80;90.20;;;;;;5042963;28;20196;-38
2022/04/23 01:18:42;;;;;;;14.18;10.52;;;14.80;90.10;;;;;;5032247;28;20232;-38
2022/04/23 01:21:13;;;;;;;12.00;10.68;;;14.80;90.10;;;;;;5034177;28;20305;-37
2022/04/23 01:23:44;;;;;;;11.32;10.20;;;14.80;90.00;;;;;;5032761;28;21247;-37
2022/04/23 01:26:22;;;;;;;12.50;10.48;;;14.80;90.00;;;;;;5040534;28;20236;-37
2022/04/23 01:28:50;;;;;;;12.18;10.35;;;14.80;90.10;;;;;;5043716;28;20351;-37
2022/04/23 01:31:19;;;;;;;12.70;10.55;;;14.80;90.10;;;;;;5029957;28;20239;-37
2022/04/23 01:33:49;;;;;;;12.13;10.88;;;14.80;90.10;;;;;;5029250;28;20189;-37
2022/04/23 01:36:16;;;;;;;12.93;11.60;;;14.80;90.10;;;;;;5031043;28;20205;-37
2022/04/23 01:38:44;;;;;;;12.18;10.85;;;14.80;90.30;;;;;;5037069;28;20264;-38
2022/04/23 01:41:14;;;;;;;15.10;12.05;;;14.80;90.10;;;;;;5033217;28;20216;-38
2022/04/23 01:43:43;;;;;;;13.80;10.80;;;14.80;90.30;;;;;;5033897;28;20291;-38
2022/04/23 01:46:13;;;;;;;11.90;10.70;;;14.70;90.20;;;;;;5057949;28;20199;-38
2022/04/23 01:48:41;;;;;;;13.18;10.57;;;14.70;90.10;;;;;;5037077;28;20482;-38
2022/04/23 01:51:09;;;;;;;12.27;10.98;;;14.70;90.30;;;;;;5031401;28;20209;-38
2022/04/23 01:53:39;;;;;;;12.43;11.13;;;14.70;90.10;;;;;;5031434;28;20243;-38
2022/04/23 01:56:11;;;;;;;15.50;12.13;;;14.70;90.30;;;;;;5041962;28;20999;-38
2022/04/23 01:58:43;;;;;;;15.82;12.65;;;14.70;90.20;;;;;;5034129;28;20209;-38
2022/04/23 02:01:13;;;;;;;14.05;12.27;;;14.70;91.00;;;;;;5034855;28;20687;-38
2022/04/23 02:03:40;;;;;;;14.57;12.43;;;14.70;90.40;;;;;;5033613;28;20216;-37
2022/04/23 02:06:07;;;;;;;14.10;12.52;;;14.70;90.50;;;;;;5043041;28;20289;-38
2022/04/23 02:08:40;;;;;;;15.52;11.68;;;14.70;90.50;;;;;;5042138;28;20205;-38
2022/04/23 02:11:09;;;;;;;15.25;12.13;;;14.70;90.70;;;;;;5029854;28;20221;-37
2022/04/23 02:13:39;;;;;;;14.02;12.52;;;14.70;90.40;;;;;;5030522;28;20205;-38
2022/04/23 02:16:11;;;;;;;15.00;12.20;;;14.70;90.50;;;;;;5044744;28;20295;-38
2022/04/23 02:18:39;;;;;;;12.77;11.55;;;14.60;90.50;;;;;;5039806;28;20243;-38
2022/04/23 02:21:11;;;;;;;16.08;12.50;;;14.70;90.60;;;;;;5027698;28;22038;-37
2022/04/23 02:23:43;;;;;;;13.52;12.13;;;14.70;90.40;;;;;;5028127;28;20201;-37
2022/04/23 02:26:15;;;;;;;12.40;11.10;;;14.70;90.90;;;;;;5038854;28;20187;-37
2022/04/23 02:28:42;;;;;;;13.35;11.80;;;14.70;90.50;;;;;;5029641;28;20241;-38
2022/04/23 02:31:09;;;;;;;16.77;13.95;;;14.70;90.70;;;;;;5029437;28;20527;-38
2022/04/23 02:33:39;;;;;;;13.82;12.40;;;14.60;91.00;;;;;;5035141;28;20262;-38
2022/04/23 02:36:11;;;;;;;17.73;13.25;;;14.70;90.60;;;;;;5034373;28;20220;-38
2022/04/23 02:38:40;;;;;;;14.82;13.23;;;14.60;90.80;;;;;;5045717;28;20203;-37
2022/04/23 02:41:12;;;;;;;14.63;12.90;;;14.60;90.70;;;;;;5043542;28;20224;-37
2022/04/23 02:43:42;;;;;;;14.57;13.07;;;14.70;90.80;;;;;;5029634;28;20216;-38
2022/04/23 02:46:12;;;;;;;15.60;13.68;;;14.70;90.80;;;;;;5057236;28;20208;-37
2022/04/23 02:48:42;;;;;;;14.88;13.25;;;14.70;91.00;;;;;;5033003;28;20225;-37
2022/04/23 02:51:15;;;;;;;15.57;13.95;;;14.70;90.70;;;;;;5040155;28;20579;-37
2022/04/23 02:53:43;;;;;;;16.67;13.43;;;14.60;90.80;;;;;;5029521;28;20668;-37
2022/04/23 02:56:17;;;;;;;15.60;14.00;;;14.70;91.30;;;;;;5043733;28;20290;-37
2022/04/23 02:58:47;;;;;;;14.48;12.98;;;14.60;91.20;;;;;;5034940;28;20248;-42
2022/04/23 03:01:16;;;;;;;17.77;14.23;;;14.60;90.90;;;;;;5033151;28;20228;-42
2022/04/23 03:03:44;;;;;;;16.05;13.70;;;14.60;91.20;;;;;;5038163;28;20237;-39
2022/04/23 03:06:14;;;;;;;15.73;13.05;;;14.60;91.20;;;;;;5033273;28;20216;-41
2022/04/23 03:08:43;;;;;;;15.55;13.82;;;14.60;91.10;;;;;;5027394;28;20208;-40
2022/04/23 03:11:14;;;;;;;15.85;14.15;;;14.50;91.10;;;;;;5040821;28;20219;-41
2022/04/23 03:13:44;;;;;;;17.35;14.20;;;14.50;91.00;;;;;;5028636;28;20196;-39
2022/04/23 03:16:14;;;;;;;15.50;13.52;;;14.60;91.00;;;;;;5037456;28;20254;-40
2022/04/23 03:18:41;;;;;;;17.25;13.40;;;14.60;90.80;;;;;;5034538;28;20215;-39
2022/04/23 03:21:10;;;;;;;15.38;13.75;;;14.50;91.30;;;;;;5027887;28;20277;-40
2022/04/23 03:23:37;;;;;;;15.32;13.82;;;14.50;91.30;;;;;;5036071;28;20746;-40
2022/04/23 03:26:05;;;;;;;16.75;14.32;;;14.40;91.30;;;;;;5038469;28;20626;-39
2022/04/23 03:28:32;;;;;;;17.55;14.35;;;14.40;91.40;;;;;;5032199;28;20254;-40
2022/04/23 03:30:59;;;;;;;15.98;13.98;;;14.40;91.40;;;;;;5032077;28;20208;-39
2022/04/23 03:33:29;;;;;;;17.30;14.00;;;14.40;91.10;;;;;;5043636;28;20228;-40
2022/04/23 03:36:00;;;;;;;16.33;14.63;;;14.40;91.20;;;;;;5034011;28;20743;-41
2022/04/23 03:38:32;;;;;;;16.73;14.93;;;14.30;91.50;;;;;;5044397;28;20201;-40
2022/04/23 03:41:00;;;;;;;16.52;13.93;;;14.30;91.50;;;;;;5034854;28;20286;-42
2022/04/23 03:43:27;;;;;;;17.23;14.98;;;14.30;91.10;;;;;;5026651;28;20212;-38
2022/04/23 03:45:54;;;;;;;15.98;14.38;;;14.30;91.60;;;;;;5036134;28;20737;-41
2022/04/23 03:48:22;;;;;;;15.60;13.75;;;14.30;91.30;;;;;;5037506;28;20207;-41
2022/04/23 03:50:49;;;;;;;16.98;14.30;;;14.30;91.10;;;;;;5035980;28;20238;-42
2022/04/23 03:53:19;;;;;;;17.13;14.45;;;14.30;91.10;;;;;;5039059;28;20220;-42
2022/04/23 03:55:49;;;;;;;17.80;13.77;;;14.30;91.50;;;;;;5033946;28;20235;-41
2022/04/23 03:58:18;;;;;;;16.67;14.98;;;14.30;91.20;;;;;;5032537;28;20219;-42
2022/04/23 04:00:46;;;;;;;16.75;15.00;;;14.20;91.50;;;;;;5026219;28;20252;-42
2022/04/23 04:03:20;;;;;;;16.38;14.75;;;14.20;91.50;;;;;;5030055;28;20281;-40
2022/04/23 04:05:50;;;;;;;15.98;14.15;;;14.20;91.60;;;;;;5037954;28;20246;-41
2022/04/23 04:08:20;;;;;;;17.33;15.53;;;14.20;91.30;;;;;;5027161;28;20501;-41
2022/04/23 04:10:49;;;;;;;17.30;15.40;;;14.20;91.30;;;;;;5034626;28;20208;-40
2022/04/23 04:13:19;;;;;;;17.67;15.77;;;14.10;91.90;;;;;;5035557;28;20228;-41
2022/04/23 04:15:50;;;;;;;18.75;15.40;;;14.00;91.80;;;;;;5045019;28;20303;-41
2022/04/23 04:18:20;;;;;;;15.43;13.63;;;14.00;91.50;;;;;;5028761;28;20232;-42
2022/04/23 04:20:53;;;;;;;16.80;14.95;;;14.00;91.10;;;;;;5029859;28;20216;-41
2022/04/23 04:23:26;;;;;;;15.85;14.25;;;14.00;91.50;;;;;;5026220;28;20689;-38
2022/04/23 04:25:56;;;;;;;17.02;15.32;;;14.00;91.20;;;;;;5035753;28;20204;-41
2022/04/23 04:28:29;;;;;;;17.58;15.35;;;14.00;91.40;;;;;;5026827;28;20216;-42
2022/04/23 04:33:45;;;;;;;18.00;16.05;;;14.00;91.20;;;;;;5031594;28;20209;-40
2022/04/23 04:36:17;;;;;;;17.80;15.18;;;13.90;91.40;;;;;;5032528;28;20223;-42
2022/04/23 04:38:49;;;;;;;17.50;15.60;;;13.90;91.60;;;;;;5030790;28;20227;-41
2022/04/23 04:41:16;;;;;;;18.33;14.90;;;13.90;91.30;;;;;;5030913;28;20319;-42
2022/04/23 04:43:45;;;;;;;17.38;14.65;;;13.90;91.10;;;;;;5032223;28;20200;-38
2022/04/23 04:46:15;;;;;;;17.30;14.93;;;13.90;91.30;;;;;;5053207;28;20346;-40
2022/04/23 04:48:44;;;;;;;18.58;16.45;;;13.90;91.20;;;;;;5025906;28;20748;-38
2022/04/23 04:51:16;;;;;;;17.23;15.43;;;13.90;91.40;;;;;;5030607;28;20239;-40
2022/04/23 04:53:46;;;;;;;18.33;15.68;;;13.90;91.40;;;;;;5032144;28;20196;-40
2022/04/23 04:56:17;;;;;;;17.77;15.87;;;13.90;91.30;;;;;;5043798;28;20232;-40
2022/04/23 04:58:45;;;;;;;17.88;15.68;;;13.90;91.30;;;;;;5038896;28;20650;-40
2022/04/23 05:01:18;;;;;;;22.02;16.02;;;13.90;91.40;;;;;;5018886;28;20309;-41
2022/04/23 05:03:47;;;;;;;17.80;15.30;;;13.80;91.40;;;;;;5031990;28;20208;-41
2022/04/23 05:06:18;;;;;;;17.92;15.40;;;13.80;91.30;;;;;;5031985;28;20267;-40
2022/04/23 05:08:45;;;;;;;17.73;15.82;;;13.80;91.30;;;;;;5032454;28;20201;-38
2022/04/23 05:11:12;;;;;;;21.13;16.90;;;13.80;91.40;;;;;;5024929;28;20203;-40
2022/04/23 05:13:44;;;;;;;17.92;15.82;;;13.80;91.60;;;;;;5038293;28;20216;-41
2022/04/23 05:16:12;;;;;;;18.93;16.73;;;13.80;91.40;;;;;;5042605;28;20204;-40
2022/04/23 05:18:44;;;;;;;17.95;16.05;;;13.70;91.60;;;;;;5039139;28;20246;-41
2022/04/23 05:21:14;;;;;;;18.75;16.85;;;13.70;91.30;;;;;;5043095;28;20314;-40
2022/04/23 05:23:41;;;;;;;18.92;16.90;;;13.70;91.50;;;;;;5033173;28;20255;-40
2022/04/23 05:26:09;;;;;;;19.67;16.35;;;13.70;91.60;;;;;;5036496;28;20842;-44
2022/04/23 05:28:36;;;;;;;18.88;16.88;;;13.70;91.40;;;;;;5033171;28;20680;-38
2022/04/23 05:31:03;;;;;;;19.77;16.73;;;13.70;91.50;;;;;;5033250;28;20628;-40
2022/04/23 05:33:35;;;;;;;19.02;16.58;;;13.70;91.50;;;;;;5036716;28;20232;-38
2022/04/23 05:36:06;;;;;;;19.38;16.98;;;13.70;91.70;;;;;;5046069;28;20571;-38
2022/04/23 05:38:39;;;;;;;18.55;15.75;;;13.80;91.60;;;;;;5043881;28;20686;-39
2022/04/23 05:41:06;;;;;;;19.65;16.27;;;13.70;91.50;;;;;;5036595;28;20231;-39
2022/04/23 05:43:35;;;;;;;17.63;15.77;;;13.80;91.50;;;;;;5036544;28;20220;-39
2022/04/23 05:46:07;;;;;;;18.30;16.23;;;13.80;91.50;;;;;;5037794;28;20192;-39
2022/04/23 05:48:39;;;;;;;18.65;16.55;;;13.80;91.50;;;;;;5028555;28;20730;-39
2022/04/23 05:51:07;;;;;;;18.00;16.10;;;13.80;92.00;;;;;;5041810;28;20216;-39
2022/04/23 05:53:36;;;;;;;20.58;17.75;;;13.80;91.40;;;;;;5033117;28;20660;-39
2022/04/23 05:56:06;;;;;;;20.38;17.52;;;13.80;91.80;;;;;;5042522;28;20533;-39
2022/04/23 05:58:39;;;;;;;20.70;16.90;;;13.80;92.10;;;;;;5033980;28;20204;-39
2022/04/23 06:01:10;;;;;;;19.45;17.05;;;13.90;92.00;;;;;;5028579;28;20319;-39
2022/04/23 06:03:41;;;;;;;20.02;17.88;;;13.80;91.80;;;;;;5041493;28;20204;-39
2022/04/23 06:06:10;;;;;;;19.30;16.87;;;13.80;92.00;;;;;;5036967;28;20694;-39
2022/04/23 06:08:42;;;;;;;18.40;15.80;;;13.80;92.00;;;;;;5044205;28;20306;-39
2022/04/23 06:11:09;;;;;;;18.63;15.80;;;13.90;92.20;;;;;;5035919;28;20275;-39
2022/04/23 06:13:43;;;;;;;18.10;16.25;;;13.90;92.00;;;;;;5038678;28;20205;-39
2022/04/23 06:16:18;;;;;;;19.20;16.08;;;13.90;92.20;;;;;;5038218;28;20208;-38
2022/04/23 06:18:45;;;;;;;20.23;16.42;;;13.90;92.00;;;;;;5034305;28;20236;-38
2022/04/23 06:21:13;;;;;;;20.08;17.10;;;13.90;91.90;;;;;;5044688;28;20215;-38
2022/04/23 06:23:40;;;;;;;20.20;16.40;;;13.90;92.00;;;;;;5044259;28;20204;-38
2022/04/23 06:26:10;;;;;;;18.37;16.17;;;13.90;92.30;;;;;;5028425;28;20279;-39
2022/04/23 06:28:37;;;;;;;19.92;16.77;;;13.90;92.10;;;;;;5031971;28;20294;-39
2022/04/23 06:31:04;;;;;;;17.83;15.93;;;14.00;92.30;;;;;;5038009;28;20227;-39
2022/04/23 06:33:36;;;;;;;20.73;16.23;;;14.00;92.00;;;;;;5041043;28;20691;-40
2022/04/23 06:36:07;;;;;;;18.70;16.70;;;14.00;92.20;;;;;;5037463;28;20216;-39
2022/04/23 06:38:36;;;;;;;18.75;16.23;;;14.00;92.20;;;;;;5034466;28;20208;-39
2022/04/23 06:41:09;;;;;;;17.92;16.02;;;14.10;92.20;;;;;;5038423;28;20761;-39
2022/04/23 06:43:37;;;;;;;16.95;14.88;;;14.10;92.00;;;;;;5047054;28;20753;-39
2022/04/23 06:46:04;;;;;;;20.77;17.10;;;14.20;92.10;;;;;;5044971;28;20829;-39
2022/04/23 06:48:43;;;;;;;18.25;15.65;;;14.20;92.20;;;;;;5027481;28;20204;-39
2022/04/23 06:51:11;;;;;;;18.20;15.45;;;14.20;92.10;;;;;;5035216;28;20211;-40
2022/04/23 06:53:41;;;;;;;18.23;16.23;;;14.20;92.10;;;;;;5036283;28;20224;-42
2022/04/23 06:56:10;;;;;;;16.55;14.70;;;14.30;92.30;;;;;;5029179;28;20409;-42
2022/04/23 06:58:38;;;;;;;17.02;15.18;;;14.30;92.10;;;;;;5039949;28;20235;-39
2022/04/23 07:01:05;;;;;;;16.70;14.85;;;14.40;92.30;;;;;;5045617;28;20355;-41
2022/04/23 07:03:35;;;;;;;17.90;15.77;;;14.40;92.20;;;;;;5034445;28;20262;-41
2022/04/23 07:06:03;;;;;;;18.75;16.08;;;14.50;92.30;;;;;;5031365;28;20226;-41
2022/04/23 07:08:30;;;;;;;16.77;15.05;;;14.50;92.60;;;;;;5030547;28;20250;-41
2022/04/23 07:10:58;;;;;;;16.73;14.93;;;14.50;92.30;;;;;;5031455;28;20229;-42
2022/04/23 07:13:28;;;;;;;19.92;16.02;;;14.60;92.60;;;;;;5038772;28;20211;-39
2022/04/23 07:15:58;;;;;;;17.42;14.90;;;14.60;92.50;;;;;;5048367;28;20358;-42
2022/04/23 07:18:28;;;;;;;16.13;14.27;;;14.60;92.40;;;;;;5041954;28;20627;-41
2022/04/23 07:21:01;;;;;;;20.55;16.55;;;14.60;92.30;;;;;;5029922;28;20228;-41
2022/04/23 07:26:16;;;;;;;20.70;17.23;;;14.70;92.70;;;;;;5026579;28;20201;-42
2022/04/23 07:28:43;;;;;;;18.00;16.10;;;14.70;92.70;;;;;;5026382;28;20209;-42
2022/04/23 07:31:13;;;;;;;15.20;13.70;;;14.70;92.60;;;;;;5038145;28;20300;-40
2022/04/23 07:39:12;;;;;;;17.52;15.68;;;14.90;92.90;;;;;;5039300;28;20217;-42
2022/04/23 07:41:39;;;;;;;18.17;16.30;;;14.90;92.70;;;;;;5028411;28;20229;-42
2022/04/23 07:44:09;;;;;;;17.13;15.20;;;14.90;92.80;;;;;;5043599;28;20210;-41
2022/04/23 07:46:41;;;;;;;16.83;13.80;;;14.90;92.70;;;;;;5063851;28;20207;-41
2022/04/23 07:49:11;;;;;;;16.80;15.02;;;15.00;92.60;;;;;;5028826;28;20263;-41
2022/04/23 07:51:46;;;;;;;18.38;15.52;;;15.10;92.80;;;;;;5027890;28;20315;-42
2022/04/23 07:54:14;;;;;;;16.75;14.95;;;15.10;93.00;;;;;;5035480;28;20691;-43
2022/04/23 07:56:42;;;;;;;16.88;14.68;;;15.20;92.80;;;;;;5042008;28;20224;-42
2022/04/23 07:59:09;;;;;;;16.13;14.55;;;15.20;92.70;;;;;;5044977;28;20208;-42
2022/04/23 08:01:36;;;;;;;17.20;15.32;;;15.30;92.80;;;;;;5028453;28;20753;-41
2022/04/23 08:04:07;;;;;;;16.27;14.55;;;15.30;93.00;;;;;;5044871;28;20739;-41
2022/04/23 08:06:35;;;;;;;18.65;15.95;;;15.30;92.80;;;;;;5046440;28;20246;-41
2022/04/23 08:09:05;;;;;;;17.67;15.00;;;15.40;93.00;;;;;;5045913;28;20773;-48
2022/04/23 08:11:37;;;;;;;16.40;14.18;;;15.50;93.00;;;;;;5030211;28;20717;-40
2022/04/23 08:14:12;;;;;;;16.10;14.48;;;15.50;92.90;;;;;;5043267;28;20215;-41
2022/04/23 08:16:42;;;;;;;16.10;13.85;;;15.60;93.00;;;;;;5027458;28;20215;-41
2022/04/23 08:19:09;;;;;;;15.88;14.27;;;15.70;92.90;;;;;;5036568;28;20686;-41
2022/04/23 08:21:41;;;;;;;17.30;15.50;;;15.70;92.90;;;;;;5032786;28;20221;-40
2022/04/23 08:24:08;;;;;;;17.70;15.80;;;15.80;93.10;;;;;;5056437;28;20287;-42
2022/04/23 08:26:35;;;;;;;17.77;15.05;;;15.90;93.10;;;;;;5033984;28;20339;-42
2022/04/23 08:31:52;;;;;;;16.33;14.60;;;15.90;93.00;;;;;;5028921;28;20951;-40
2022/04/23 08:34:19;;;;;;;18.90;16.80;;;15.90;93.00;;;;;;5031195;28;20208;-41
2022/04/23 08:36:50;;;;;;;16.80;14.90;;;16.00;93.20;;;;;;5029325;28;20307;-39
2022/04/23 08:39:19;;;;;;;17.35;15.55;;;16.00;93.10;;;;;;5026345;28;20550;-39
2022/04/23 08:41:53;;;;;;;15.05;13.45;;;16.00;93.20;;;;;;5031216;28;20714;-39
2022/04/23 08:44:23;;;;;;;17.40;15.52;;;16.10;93.10;;;;;;5048647;28;20223;-39
2022/04/23 08:46:56;;;;;;;18.10;16.08;;;16.20;93.30;;;;;;5049978;28;20287;-40
2022/04/23 08:49:38;;;;;;;19.27;16.23;;;16.20;93.20;;;;;;5038102;28;20216;-40
2022/04/23 08:52:21;;;;;;;17.83;15.38;;;16.30;93.30;;;;;;5036755;28;20235;-43
2022/04/23 08:54:50;;;;;;;18.05;16.10;;;16.40;93.40;;;;;;5050800;28;20742;-42
2022/04/23 08:57:17;;;;;;;17.65;15.30;;;16.40;93.30;;;;;;5050837;28;20200;-42
2022/04/23 08:59:51;;;;;;;17.40;15.65;;;16.40;93.30;;;;;;5051472;28;20207;-43
2022/04/23 09:02:19;;;;;;;17.80;14.25;;;16.50;93.40;;;;;;5044683;28;20223;-43
2022/04/23 09:04:46;;;;;;;16.77;14.98;;;16.60;93.40;;;;;;5044945;28;20628;-41
2022/04/23 09:07:24;;;;;;;16.80;15.00;;;16.60;93.40;;;;;;5033181;28;20201;-42
2022/04/23 09:09:56;;;;;;;17.45;15.65;;;16.70;93.50;;;;;;5038110;28;20520;-43
2022/04/23 09:12:30;;;;;;;15.27;13.68;;;16.80;93.50;;;;;;5033638;28;20610;-43
2022/04/23 09:23:39;;;;;;;15.25;13.65;;;16.80;93.40;;;;;;5030738;28;20650;-42
2022/04/23 09:23:41;;;;;;;17.17;15.20;;;17.10;93.60;;;;;;5028418;28;20583;-43
2022/04/23 09:26:25;;;;;;;17.80;15.77;;;17.10;93.60;;;;;;5030325;28;20323;-41
2022/04/23 09:28:57;;;;;;;16.67;14.68;;;17.10;93.60;;;;;;5048070;28;20321;-43
2022/04/23 09:31:28;;;;;;;17.00;15.15;;;17.10;93.50;;;;;;5038059;28;20213;-41
2022/04/23 09:34:00;;;;;;;15.98;13.73;;;17.20;93.60;;;;;;5029805;28;20594;-42
2022/04/23 09:37:00;;;;;;;15.07;13.55;;;17.20;93.90;;;;;;5029092;28;20229;-41
2022/04/23 09:39:30;;;;;;;15.30;13.80;;;17.30;93.60;;;;;;5031970;28;20238;-42
2022/04/23 09:42:14;;;;;;;17.23;15.15;;;17.40;93.70;;;;;;5029424;28;20241;-41
2022/04/23 09:44:46;;;;;;;18.08;15.57;;;17.50;93.70;;;;;;5033074;28;20197;-40
2022/04/23 09:47:42;;;;;;;15.98;14.30;;;17.40;93.60;;;;;;5061761;28;20204;-42
2022/04/23 09:50:15;;;;;;;17.55;14.65;;;17.50;93.60;;;;;;5046377;28;20274;-41
2022/04/23 09:52:49;;;;;;;16.75;15.00;;;17.50;93.60;;;;;;5034165;28;20204;-42
2022/04/23 09:55:26;;;;;;;16.80;15.10;;;17.50;93.60;;;;;;5049901;28;20649;-43
2022/04/23 09:57:54;;;;;;;17.70;14.63;;;17.60;93.70;;;;;;5040905;28;20204;-41
2022/04/23 10:00:28;;;;;;;16.35;14.65;;;17.60;93.70;;;;;;5028525;28;20259;-42
2022/04/23 10:03:00;;;;;;;16.38;14.77;;;17.70;93.80;;;;;;5039588;28;20235;-42
2022/04/23 10:05:31;;;;;;;14.98;12.88;;;17.70;93.70;;;;;;5030931;28;20583;-44
2022/04/23 10:07:58;;;;;;;16.35;14.60;;;17.80;93.80;;;;;;5029706;28;20715;-41
2022/04/23 10:10:33;;;;;;;14.88;13.38;;;17.80;93.70;;;;;;5018911;28;20619;-42
2022/04/23 10:13:02;;;;;;;15.93;14.02;;;17.90;93.80;;;;;;5041427;28;20207;-42
2022/04/23 10:15:33;;;;;;;16.70;12.77;;;17.90;93.80;;;;;;5031777;28;20220;-42
2022/04/23 10:18:10;;;;;;;14.57;12.85;;;18.00;93.90;;;;;;5028775;28;20201;-42
2022/04/23 10:20:40;;;;;;;15.48;13.88;;;18.10;93.90;;;;;;5033099;28;20212;-43
2022/04/23 10:23:21;;;;;;;15.45;13.85;;;18.20;93.80;;;;;;5029326;28;20310;-42
2022/04/23 10:25:53;;;;;;;16.83;13.35;;;18.20;94.00;;;;;;5030837;28;20243;-40
2022/04/23 10:28:24;;;;;;;14.52;12.68;;;18.30;93.90;;;;;;5030266;28;20220;-39
2022/04/23 10:31:16;;;;;;;15.38;13.77;;;18.40;94.00;;;;;;5029651;28;20207;-39
2022/04/23 10:33:54;;;;;;;13.60;12.10;;;18.50;93.90;;;;;;5040247;28;20340;-39
2022/04/23 10:36:27;;;;;;;15.48;13.60;;;18.60;94.10;;;;;;5034839;28;20236;-40
2022/04/23 10:39:22;;;;;;;12.77;11.57;;;18.60;94.00;;;;;;5049375;28;20247;-40
2022/04/23 10:41:52;;;;;;;13.95;12.55;;;18.70;94.00;;;;;;5046925;28;20220;-40
2022/04/23 10:44:23;;;;;;;14.90;13.32;;;18.80;94.30;;;;;;5029788;28;20216;-40
2022/04/23 10:46:51;;;;;;;13.43;12.02;;;18.80;93.90;;;;;;5058488;28;21260;-39
2022/04/23 10:49:22;;;;;;;15.88;13.93;;;18.90;94.00;;;;;;5035475;28;20223;-39
2022/04/23 10:51:53;;;;;;;13.07;11.77;;;19.00;94.00;;;;;;5043244;28;20771;-39
2022/04/23 10:54:40;;;;;;;14.43;13.02;;;19.00;94.10;;;;;;5036641;28;20298;-39
2022/04/23 10:57:08;;;;;;;16.60;13.82;;;19.10;94.10;;;;;;5028456;28;20215;-39
2022/04/23 10:59:39;;;;;;;14.98;12.38;;;19.10;94.00;;;;;;5037857;28;20228;-39
2022/04/23 11:02:20;;;;;;;13.05;11.60;;;19.10;94.00;;;;;;5032430;28;20224;-38
2022/04/23 11:13:34;;;;;;;13.15;11.57;;;19.30;94.00;;;;;;5044279;28;20215;-39
2022/04/23 11:16:18;;;;;;;13.75;12.45;;;19.40;94.10;;;;;;5043923;28;20247;-38
2022/04/23 11:18:51;;;;;;;13.13;11.82;;;19.40;94.00;;;;;;5037846;28;20557;-38
2022/04/23 11:21:32;;;;;;;13.18;11.77;;;19.40;94.00;;;;;;5033749;28;20287;-38
2022/04/23 11:24:06;;;;;;;12.00;10.60;;;19.30;93.80;;;;;;5036457;28;20211;-38
2022/04/23 11:26:47;;;;;;;12.75;11.55;;;19.40;93.80;;;;;;5035952;28;20231;-38
2022/04/23 11:29:15;;;;;;;12.65;11.38;;;19.40;93.80;;;;;;5033980;28;20670;-38
2022/04/23 11:31:57;;;;;;;12.27;10.85;;;19.40;93.80;;;;;;5041845;28;20655;-38
2022/04/23 11:34:27;;;;;;;11.77;9.95;;;19.50;93.90;;;;;;5032445;28;20315;-38
2022/04/23 11:36:59;;;;;;;12.82;11.25;;;19.50;94.00;;;;;;5027310;28;20216;-38
2022/04/23 11:39:30;;;;;;;11.23;10.13;;;19.60;93.90;;;;;;5032707;28;20220;-38
2022/04/23 11:42:02;;;;;;;13.43;10.60;;;19.60;94.00;;;;;;5027691;28;20215;-37
2022/04/23 11:44:48;;;;;;;13.38;11.38;;;19.70;94.10;;;;;;5037850;28;20205;-39
2022/04/23 11:47:28;;;;;;;11.20;9.55;;;19.80;94.10;;;;;;5031858;28;20213;-39
2022/04/23 11:50:13;;;;;;;11.05;9.30;;;19.90;94.20;;;;;;5043244;28;20683;-38
2022/04/23 11:52:47;;;;;;;10.30;9.30;;;19.90;94.20;;;;;;5037371;28;20201;-39
2022/04/23 11:55:23;;;;;;;10.85;9.82;;;20.00;94.30;;;;;;5029689;28;20514;-39
2022/04/23 11:58:18;;;;;;;10.52;9.43;;;20.10;94.30;;;;;;5036521;28;20232;-38
2022/04/23 12:00:48;;;;;;;12.38;8.95;;;20.20;94.40;;;;;;5032652;28;20757;-38
2022/04/23 12:03:25;;;;;;;10.02;9.02;;;20.20;94.30;;;;;;5038004;28;20224;-38
2022/04/23 12:05:58;;;;;;;10.18;9.18;;;20.30;94.30;;;;;;5046184;28;20196;-38
2022/04/23 12:08:30;;;;;;;12.20;9.98;;;20.40;94.30;;;;;;5041882;28;20213;-38
2022/04/23 12:10:57;;;;;;;10.90;9.75;;;20.40;94.10;;;;;;5027858;28;20330;-38
2022/04/23 12:13:25;;;;;;;10.88;9.32;;;20.40;94.00;;;;;;5035966;28;20519;-38
2022/04/23 12:15:54;;;;;;;12.60;9.73;;;20.40;93.80;;;;;;5037656;28;20299;-39
2022/04/23 12:18:23;;;;;;;11.27;9.20;;;20.50;93.90;;;;;;5031415;28;20252;-42
2022/04/23 12:20:50;;;;;;;10.52;8.43;;;20.60;93.80;;;;;;5027732;28;20561;-43
2022/04/23 12:23:19;;;;;;;10.90;9.10;;;20.60;93.90;;;;;;5030287;28;20224;-42
2022/04/23 12:25:46;;;;;;;9.80;8.18;;;20.70;93.70;;;;;;5026666;28;20301;-42
2022/04/23 12:42:45;;;;;;;8.70;7.82;;;20.90;93.60;;;;;;5026405;28;20221;-42
2022/04/23 12:45:20;;;;;;;8.40;7.50;;;21.00;93.70;;;;;;5033076;28;20200;-42
2022/04/23 12:47:47;;;;;;;8.68;7.60;;;21.00;93.80;;;;;;5043760;28;20208;-42
2022/04/23 12:50:27;;;;;;;7.80;7.00;;;21.10;93.60;;;;;;5035836;28;20224;-42
2022/04/23 12:52:57;;;;;;;8.95;7.25;;;21.20;94.00;;;;;;5036489;28;20721;-40
2022/04/23 12:55:29;;;;;;;11.00;7.55;;;21.30;93.80;;;;;;5025718;28;20241;-43
2022/04/23 12:58:02;;;;;;;8.70;7.60;;;21.40;93.80;;;;;;5036137;28;20208;-43
2022/04/23 13:00:35;;;;;;;9.00;8.20;;;21.50;93.60;;;;;;5042154;28;20208;-44
2022/04/23 13:05:50;;;;;;;8.02;7.22;;;21.50;93.50;;;;;;5042693;28;20552;-42
2022/04/23 13:11:24;;;;;;;7.60;6.90;;;21.60;93.20;;;;;;5027660;28;20703;-40
2022/04/23 13:13:54;;;;;;;12.82;7.13;;;21.70;93.30;;;;;;5024920;28;20660;-40
2022/04/23 13:16:25;;;;;;;7.75;6.95;;;21.70;93.40;;;;;;5026764;28;20265;-41
2022/04/23 13:18:56;;;;;;;7.88;7.07;;;21.70;93.40;;;;;;5031334;28;20238;-40
2022/04/23 13:21:31;;;;;;;8.70;7.90;;;21.80;93.40;;;;;;5031890;28;20233;-40
2022/04/23 13:23:59;;;;;;;6.93;6.20;;;21.80;93.10;;;;;;5036831;28;20220;-41
2022/04/23 13:26:34;;;;;;;8.18;7.38;;;21.80;93.50;;;;;;5025641;28;20240;-41
2022/04/23 13:29:01;;;;;;;8.50;7.65;;;21.90;92.90;;;;;;5032760;28;20642;-41
2022/04/23 13:31:28;;;;;;;7.15;6.45;;;21.90;93.10;;;;;;5028718;28;20197;-40
2022/04/23 13:34:00;;;;;;;7.22;6.22;;;21.90;93.20;;;;;;5044750;28;20208;-41
2022/04/23 13:36:37;;;;;;;7.07;6.38;;;22.00;93.20;;;;;;5043074;28;20686;-40